Peterborough, Ontario

9:21 AM EDT on May 24, 2017 (GMT -0400)
Peterborough

Weather History for CYPQ - April, 2013

Change the Weather History Date:

Friday, April 12, 2013

  Actual Average Record
Temperature  
Mean Temperature 24 °F -  
Max Temperature 33 °F 56 °F 73 °F (2001)
Min Temperature 15 °F 35 °F -15 °F (2017)
Degree Days  
Heating Degree Days 41    
Moisture  
Dew Point 29 °F    
Average Humidity 90    
Maximum Humidity 100    
Minimum Humidity 52    
Precipitation  
Precipitation 0.01 in 0.09 in - ()
Sea Level Pressure  
Sea Level Pressure 29.77 in    
Wind  
Wind Speed 13 mph ()    
Max Wind Speed 24 mph    
Max Gust Speed 37 mph    
Visibility 7.1 miles    
Events Rain , Snow    
Averages and records for this station are not official NWS values.
T = Trace of Precipitation, MM = Missing Value Source: Averaged Metar Reports

Daily Weather History Graph

Daily Weather History Graph

Search for Another Location

Airport or City:

Trip Planner

Search our weather history database for the weather conditions in past years. The results will help you decide how hot, cold, wet, or windy it might be!

Date:

Astronomy

Apr. 12, 2013 Rise Set
Actual Time 6:34 AM EDT 7:54 PM EDT
Civil Twilight 6:04 AM EDT 8:24 PM EDT
Nautical Twilight 5:28 AM EDT 9:00 PM EDT
Astronomical Twilight 4:50 AM EDT 9:39 PM EDT
Moon 7:38 AM EDT (4/12) 10:29 PM EDT (4/12)
Length of Visible Light 14h 19m
Length of Day
13h 19m
Waxing Crescent, 5% of the Moon is Illuminated
Apr 12
Waxing Crescent
Apr 18
First Quarter
Apr 25
Full
May 2
Last Quarter
May 9
New

Hourly Weather History & Observations

Time (EDT) Temp. Windchill Dew Point Humidity Pressure Visibility Wind Dir Wind Speed Gust Speed Precip Events Conditions
12:00 AM 33.8 °F 22.8 °F 17.6 °F 52% 30.03 in 9.0 mi ENE 18.4 mph - N/A   Overcast
12:02 AM 33.8 °F 23.2 °F 17.6 °F 52% 30.03 in 9.0 mi ENE 17.3 mph 24.2 mph N/A Rain Light Rain
12:30 AM 32.0 °F 22.5 °F 21.2 °F 64% 30.03 in 9.0 mi East 12.7 mph 19.6 mph N/A Rain , Snow Light Snow
12:35 AM 32.0 °F 22.5 °F 23.0 °F 69% 30.03 in 9.0 mi East 12.7 mph 21.9 mph N/A Snow Light Snow
1:00 AM 32.0 °F 22.1 °F 23.0 °F 69% 30.01 in 9.0 mi ENE 13.8 mph 20.7 mph N/A Snow Light Snow
1:13 AM 32.0 °F 22.1 °F 23.0 °F 69% 29.99 in 9.0 mi ENE 13.8 mph 25.3 mph N/A   Overcast
1:29 AM 32.0 °F 22.1 °F 23.0 °F 69% 29.99 in 9.0 mi East 13.8 mph 24.2 mph N/A Snow Light Snow
1:44 AM 32.0 °F 21.2 °F 23.0 °F 69% 29.98 in 9.0 mi ENE 16.1 mph 25.3 mph N/A Rain , Snow Light Snow
1:54 AM 32.0 °F 20.8 °F 23.0 °F 69% 29.97 in 9.0 mi ENE 17.3 mph 29.9 mph N/A Snow Light Snow
1:57 AM 32.0 °F 22.1 °F 23.0 °F 69% 29.97 in 9.0 mi ENE 13.8 mph 29.9 mph N/A Rain , Snow Light Snow
2:00 AM 17 °F - 16 °F 92% 30.20 in - SSW 11.5 mph - -  
2:00 AM 32.0 °F 20.5 °F 23.0 °F 69% 29.96 in 9.0 mi ENE 18.4 mph 29.9 mph N/A Rain , Snow Light Snow
2:02 AM 32.0 °F 21.2 °F 23.0 °F 69% 29.96 in 9.0 mi ENE 16.1 mph 26.5 mph N/A Rain Light Rain
2:29 AM 32.0 °F 21.6 °F 23.0 °F 69% 29.93 in 9.0 mi ENE 15.0 mph 29.9 mph N/A Rain , Snow Light Snow
2:31 AM 32.0 °F 21.6 °F 23.0 °F 69% 29.94 in 9.0 mi ENE 15.0 mph 29.9 mph N/A Rain , Snow Light Snow
2:34 AM 32.0 °F 20.5 °F 23.0 °F 69% 29.94 in 9.0 mi ENE 18.4 mph 29.9 mph N/A Snow Light Snow
2:43 AM 32.0 °F 22.5 °F 23.0 °F 69% 29.95 in 9.0 mi East 12.7 mph 25.3 mph N/A Rain , Snow Light Snow
2:48 AM 32.0 °F 21.2 °F 23.0 °F 69% 29.94 in 9.0 mi ENE 16.1 mph 23.0 mph N/A Rain Light Freezing Rain
2:53 AM 32.0 °F 20.1 °F 23.0 °F 69% 29.94 in 9.0 mi ENE 19.6 mph 26.5 mph N/A Rain , Snow Light Snow
2:58 AM 32.0 °F 20.1 °F 24.8 °F 75% 29.93 in 9.0 mi ENE 19.6 mph 26.5 mph N/A Snow Light Snow
3:00 AM 32.0 °F 20.1 °F 23.0 °F 69% 29.92 in 9.0 mi East 19.6 mph 27.6 mph N/A Snow Light Snow
3:06 AM 32.0 °F 21.2 °F 24.8 °F 75% 29.93 in 9.0 mi ENE 16.1 mph 27.6 mph N/A Rain , Snow Light Snow
3:11 AM 32.0 °F 21.2 °F 24.8 °F 75% 29.92 in 9.0 mi ENE 16.1 mph 28.8 mph N/A Rain Light Freezing Rain
3:16 AM 30.2 °F 19.3 °F 24.8 °F 80% 29.92 in 9.0 mi East 15.0 mph 28.8 mph N/A Rain Light Freezing Rain
3:25 AM 30.2 °F 18.1 °F 24.8 °F 80% 29.88 in 9.0 mi ENE 18.4 mph 25.3 mph N/A Rain Light Freezing Rain
3:28 AM 30.2 °F 17.1 °F 24.8 °F 80% 29.88 in 9.0 mi ENE 21.9 mph 34.5 mph N/A Rain Light Freezing Rain
3:33 AM 30.2 °F 18.1 °F 24.8 °F 80% 29.88 in 9.0 mi ENE 18.4 mph 34.5 mph N/A   Overcast
3:36 AM 30.2 °F 18.5 °F 24.8 °F 80% 29.88 in 9.0 mi East 17.3 mph 34.5 mph N/A Rain Light Freezing Rain
3:41 AM 30.2 °F 16.8 °F 26.6 °F 86% 29.88 in 9.0 mi ENE 23.0 mph 32.2 mph N/A Rain Light Freezing Rain
3:59 AM 30.2 °F 18.1 °F 26.6 °F 86% 29.88 in 7.0 mi East 18.4 mph 34.5 mph N/A Rain Light Freezing Rain
4:00 AM 30.2 °F 17.8 °F 26.6 °F 86% 29.88 in 7.0 mi ENE 19.6 mph 34.5 mph N/A Rain Light Freezing Rain
4:04 AM 30.2 °F 16.8 °F 26.6 °F 86% 29.88 in 6.0 mi ENE 23.0 mph 36.8 mph N/A   Overcast
4:05 AM 30.2 °F 17.1 °F 26.6 °F 86% 29.88 in 5.0 mi ENE 21.9 mph 36.8 mph N/A   Overcast
4:23 AM 30.2 °F 18.5 °F 28.4 °F 93% 29.89 in 4.0 mi East 17.3 mph 28.8 mph N/A   Overcast
5:00 AM 30.2 °F 17.1 °F 28.4 °F 93% 29.85 in 3.0 mi ENE 21.9 mph 33.4 mph N/A   Overcast
5:12 AM 30.2 °F 17.1 °F 28.4 °F 93% 29.84 in 6.0 mi East 21.9 mph 32.2 mph N/A   Overcast
5:29 AM 30.2 °F 19.3 °F 28.4 °F 93% 29.83 in 9.0 mi ENE 15.0 mph 29.9 mph N/A Snow Light Snow
5:34 AM 30.2 °F 18.1 °F 28.4 °F 93% 29.83 in 9.0 mi ENE 18.4 mph 26.5 mph N/A Snow Light Snow
5:51 AM 30.2 °F 17.8 °F 28.4 °F 93% 29.81 in 9.0 mi East 19.6 mph 31.1 mph N/A Snow Light Snow
5:54 AM 30.2 °F 20.2 °F 28.4 °F 93% 29.82 in 5.0 mi ENE 12.7 mph 29.9 mph N/A Snow Light Snow
6:05 AM 30.2 °F 18.1 °F 28.4 °F 93% 29.81 in 5.0 mi East 18.4 mph 31.1 mph N/A Snow Light Snow
6:07 AM 30.2 °F 18.9 °F 28.4 °F 93% 29.81 in 5.0 mi ENE 16.1 mph 31.1 mph N/A Rain , Snow Light Snow
6:13 AM 30.2 °F 18.9 °F 28.4 °F 93% 29.81 in 6.0 mi ENE 16.1 mph 25.3 mph N/A Rain , Snow Light Snow
6:15 AM 30.2 °F 17.8 °F 28.4 °F 93% 29.80 in 5.0 mi East 19.6 mph 27.6 mph N/A Rain , Snow Light Snow
6:17 AM 30.2 °F 18.1 °F 28.4 °F 93% 29.80 in 4.0 mi ENE 18.4 mph 28.8 mph N/A Rain , Snow Light Snow
6:18 AM 30.2 °F 18.5 °F 30.2 °F 100% 29.80 in 4.0 mi ENE 17.3 mph 28.8 mph N/A Snow Light Snow
6:22 AM 30.2 °F 16.5 °F 28.4 °F 93% 29.80 in 3.0 mi ENE 24.2 mph 31.1 mph N/A   Overcast
6:58 AM 30.2 °F 19.8 °F 30.2 °F 100% 29.77 in 6.0 mi East 13.8 mph 24.2 mph N/A   Overcast
7:00 AM 30.2 °F 19.8 °F 30.2 °F 100% 29.76 in 6.0 mi East 13.8 mph 24.2 mph N/A   Overcast
7:19 AM 30.2 °F 19.3 °F 30.2 °F 100% 29.75 in 9.0 mi East 15.0 mph 29.9 mph N/A Snow Light Snow
7:24 AM 32.0 °F 21.6 °F 30.2 °F 93% 29.75 in 9.0 mi East 15.0 mph 29.9 mph N/A Snow Light Snow
7:31 AM 32.0 °F 22.1 °F 30.2 °F 93% 29.74 in 9.0 mi East 13.8 mph 24.2 mph N/A Snow Light Snow
7:46 AM 32.0 °F 20.8 °F 30.2 °F 93% 29.72 in 9.0 mi ENE 17.3 mph 32.2 mph N/A Rain , Snow Light Snow
7:47 AM 32.0 °F 19.8 °F 30.2 °F 93% 29.73 in 9.0 mi East 20.7 mph 32.2 mph N/A Rain Light Freezing Rain
7:51 AM 32.0 °F 20.5 °F 30.2 °F 93% 29.72 in 9.0 mi ENE 18.4 mph 32.2 mph N/A Rain Light Freezing Rain
7:52 AM 32.0 °F 21.6 °F 30.2 °F 93% 29.72 in 9.0 mi East 15.0 mph 32.2 mph N/A Rain , Snow Light Snow
7:57 AM 32.0 °F 21.2 °F 30.2 °F 93% 29.72 in 9.0 mi East 16.1 mph 29.9 mph N/A Snow Light Snow
8:00 AM 16 °F - 15 °F 91% 30.26 in - SSW 3.5 mph - -  
8:00 AM 32.0 °F 24.2 °F 30.2 °F 93% 29.73 in 9.0 mi East 9.2 mph 25.3 mph N/A Snow Light Snow
8:27 AM 32.0 °F 20.8 °F 30.2 °F 93% 29.70 in 8.0 mi East 17.3 mph 27.6 mph N/A Snow Light Snow
8:36 AM 32.0 °F 22.1 °F 30.2 °F 93% 29.70 in 9.0 mi East 13.8 mph 26.5 mph N/A Snow Light Snow
8:55 AM 32.0 °F 23.0 °F 30.2 °F 93% 29.70 in 9.0 mi East 11.5 mph 31.1 mph N/A Snow Light Snow
9:00 AM 32.0 °F 23.6 °F 30.2 °F 93% 29.69 in 9.0 mi East 10.4 mph 21.9 mph N/A Snow Light Snow
9:15 AM 32.0 °F 22.5 °F 30.2 °F 93% 29.68 in 8.0 mi East 12.7 mph 23.0 mph N/A Snow Light Snow
9:19 AM 32.0 °F 22.5 °F 30.2 °F 93% 29.68 in 8.0 mi East 12.7 mph 21.9 mph N/A Snow Light Snow
9:28 AM 32.0 °F 22.1 °F 30.2 °F 93% 29.68 in 9.0 mi East 13.8 mph 24.2 mph N/A Snow Light Snow
9:38 AM 32.0 °F 23.0 °F 30.2 °F 93% 29.68 in 9.0 mi East 11.5 mph 23.0 mph N/A Snow Light Snow
9:43 AM 32.0 °F 22.5 °F 32.0 °F 100% 29.67 in 7.0 mi East 12.7 mph 23.0 mph N/A   Overcast
9:49 AM 32.0 °F 23.0 °F 32.0 °F 100% 29.68 in 5.0 mi East 11.5 mph 23.0 mph N/A   Overcast
10:00 AM 32.0 °F 23.6 °F 32.0 °F 100% 29.67 in 5.0 mi East 10.4 mph 21.9 mph N/A   Overcast
10:11 AM 32.0 °F 23.6 °F 32.0 °F 100% 29.67 in 6.0 mi East 10.4 mph 21.9 mph N/A   Overcast
10:16 AM 33.8 °F 23.9 °F 32.0 °F 93% 29.66 in 6.0 mi East 15.0 mph 21.9 mph N/A   Overcast
10:27 AM 33.8 °F 23.2 °F 32.0 °F 93% 29.66 in 9.0 mi East 17.3 mph - N/A Snow Light Snow
10:37 AM 33.8 °F 25.3 °F 32.0 °F 93% 29.66 in 9.0 mi East 11.5 mph 23.0 mph N/A   Overcast
11:00 AM 33.8 °F 25.3 °F 32.0 °F 93% 29.65 in 5.0 mi East 11.5 mph 18.4 mph N/A   Overcast
11:44 AM 33.8 °F 25.3 °F 32.0 °F 93% 29.65 in 6.0 mi East 11.5 mph 18.4 mph N/A   Overcast
12:00 PM 33.8 °F 27.7 °F 32.0 °F 93% 29.65 in 9.0 mi East 6.9 mph 20.7 mph N/A   Overcast
12:10 PM 33.8 °F 25.8 °F 32.0 °F 93% 29.65 in 9.0 mi ENE 10.4 mph - N/A Snow Light Snow
12:25 PM 33.8 °F 25.8 °F 32.0 °F 93% 29.64 in 7.0 mi East 10.4 mph 18.4 mph N/A Snow Light Snow
12:28 PM 33.8 °F 26.4 °F 32.0 °F 93% 29.64 in 5.0 mi East 9.2 mph 18.4 mph N/A Snow Light Snow
12:31 PM 33.8 °F 27.7 °F 32.0 °F 93% 29.64 in 4.0 mi East 6.9 mph 18.4 mph N/A Snow Light Snow
12:40 PM 33.8 °F 26.4 °F 32.0 °F 93% 29.64 in 6.0 mi East 9.2 mph - N/A Snow Light Snow
12:48 PM 33.8 °F 24.8 °F 32.0 °F 93% 29.64 in 8.0 mi East 12.7 mph 19.6 mph N/A Snow Light Snow
12:53 PM 33.8 °F 25.8 °F 32.0 °F 93% 29.63 in 5.0 mi East 10.4 mph 19.6 mph N/A   Overcast
1:00 PM 33.8 °F 25.8 °F 32.0 °F 93% 29.63 in 5.0 mi East 10.4 mph - N/A   Overcast
1:15 PM 33.8 °F 26.4 °F 32.0 °F 93% 29.62 in 6.0 mi East 9.2 mph 18.4 mph N/A   Overcast
1:19 PM 33.8 °F 24.8 °F 32.0 °F 93% 29.62 in 8.0 mi East 12.7 mph 18.4 mph N/A Snow Light Snow
1:24 PM 33.8 °F 25.3 °F 32.0 °F 93% 29.61 in 9.0 mi East 11.5 mph 18.4 mph N/A Snow Light Snow
1:42 PM 33.8 °F 25.3 °F 32.0 °F 93% 29.62 in 7.0 mi ENE 11.5 mph 17.3 mph N/A Snow Light Snow
2:00 PM 20 °F - 16 °F 79% 30.23 in - East 4.6 mph - -  
2:00 PM 33.8 °F 25.8 °F 32.0 °F 93% 29.61 in 9.0 mi East 10.4 mph - N/A Snow Light Snow
2:09 PM 33.8 °F 25.3 °F 32.0 °F 93% 29.61 in 5.0 mi ENE 11.5 mph 17.3 mph N/A Rain Light Rain
2:24 PM 33.8 °F 27.7 °F 32.0 °F 93% 29.60 in 6.0 mi East 6.9 mph - N/A Rain Light Rain
3:00 PM 33.8 °F 27.7 °F 32.0 °F 93% 29.59 in 9.0 mi ENE 6.9 mph - N/A Rain Light Rain
3:32 PM 33.8 °F 28.6 °F 32.0 °F 93% 29.61 in 9.0 mi ENE 5.8 mph - N/A   Overcast
3:45 PM 33.8 °F 29.6 °F 32.0 °F 93% 29.62 in 5.0 mi NE 4.6 mph - N/A   Overcast
3:57 PM 33.8 °F 29.6 °F 33.8 °F 100% 29.62 in 6.0 mi ENE 4.6 mph - N/A   Overcast
4:00 PM 33.8 °F 28.6 °F 33.8 °F 100% 29.62 in 6.0 mi NE 5.8 mph - N/A   Overcast
4:03 PM 33.8 °F 30.8 °F 33.8 °F 100% 29.62 in 5.0 mi NE 3.5 mph - N/A   Overcast
4:27 PM 33.8 °F 29.6 °F 33.8 °F 100% 29.63 in 3.0 mi NE 4.6 mph - N/A Rain Light Rain
4:30 PM 33.8 °F 29.6 °F 33.8 °F 100% 29.63 in 2.2 mi NNE 4.6 mph - N/A Rain Light Rain
4:58 PM 33.8 °F 28.6 °F 33.8 °F 100% 29.62 in 3.0 mi NE 5.8 mph - N/A Rain Light Rain
5:00 PM 33.8 °F 29.6 °F 33.8 °F 100% 29.62 in 3.0 mi NE 4.6 mph - N/A Rain Light Rain
5:04 PM 33.8 °F 29.6 °F 33.8 °F 100% 29.63 in 4.0 mi NE 4.6 mph - N/A   Overcast
5:23 PM 33.8 °F 28.6 °F 33.8 °F 100% 29.63 in 6.0 mi ENE 5.8 mph - N/A   Overcast
6:00 PM 33.8 °F - 33.8 °F 100% 29.66 in 9.0 mi North 2.3 mph - N/A   Overcast
6:18 PM 33.8 °F 30.8 °F 33.8 °F 100% 29.67 in 5.0 mi WNW 3.5 mph - N/A   Overcast
6:36 PM 33.8 °F 28.6 °F 33.8 °F 100% 29.68 in 3.0 mi West 5.8 mph - N/A Rain Light Rain
6:38 PM 33.8 °F 28.6 °F 33.8 °F 100% 29.68 in 2.5 mi West 5.8 mph - N/A Rain Light Rain
6:51 PM 33.8 °F 29.6 °F 33.8 °F 100% 29.69 in 2.5 mi West 4.6 mph - N/A   Overcast
6:56 PM 33.8 °F - 33.8 °F 100% 29.68 in 3.0 mi West 2.3 mph - N/A   Overcast
7:00 PM 33.8 °F - 33.8 °F 100% 29.69 in 3.0 mi West 2.3 mph - N/A   Overcast
7:07 PM 33.8 °F - 33.8 °F 100% 29.69 in 6.0 mi Variable 2.3 mph - N/A   Overcast
7:18 PM 33.8 °F - 33.8 °F 100% 29.69 in 9.0 mi Calm Calm - N/A   Overcast
7:50 PM 33.8 °F - 33.8 °F 100% 29.70 in 9.0 mi Variable 2.3 mph - N/A   Overcast
7:56 PM 33.8 °F - 33.8 °F 100% 29.70 in 9.0 mi Calm Calm - N/A   Overcast
8:00 PM 15 °F - 11 °F 79% 30.15 in - ENE 3.5 mph - -  
8:00 PM 33.8 °F - 33.8 °F 100% 29.70 in 9.0 mi South 2.3 mph - N/A   Overcast
8:10 PM 33.8 °F - 33.8 °F 100% 29.70 in 9.0 mi SSE 2.3 mph - N/A   Overcast
8:43 PM 33.8 °F - 33.8 °F 100% 29.70 in 7.0 mi Variable 2.3 mph - N/A   Overcast
8:54 PM 33.8 °F 27.7 °F 33.8 °F 100% 29.69 in 6.0 mi NNE 6.9 mph - N/A   Overcast
9:00 PM 33.8 °F 30.8 °F 33.8 °F 100% 29.70 in 8.0 mi North 3.5 mph - N/A   Overcast
9:16 PM 33.8 °F 27.0 °F 33.8 °F 100% 29.73 in 9.0 mi South 8.1 mph - N/A   Overcast
9:19 PM 33.8 °F 27.0 °F 33.8 °F 100% 29.73 in 9.0 mi South 8.1 mph - N/A   Overcast
10:00 PM 33.8 °F - 33.8 °F 100% 29.73 in 9.0 mi Calm Calm - N/A   Overcast
10:20 PM 33.8 °F - 33.8 °F 100% 29.73 in 9.0 mi Calm Calm - N/A   Overcast
10:30 PM 33.8 °F - 33.8 °F 100% 29.73 in 7.0 mi Variable 2.3 mph - N/A   Overcast
10:34 PM 33.8 °F - 33.8 °F 100% 29.73 in 5.0 mi Calm Calm - N/A   Overcast
10:57 PM 33.8 °F - 33.8 °F 100% 29.72 in 5.0 mi Calm Calm - N/A Rain Light Rain
11:00 PM 33.8 °F - 33.8 °F 100% 29.72 in 5.0 mi Calm Calm - N/A Rain Light Rain
11:09 PM 33.8 °F - 33.8 °F 100% 29.72 in 5.0 mi Calm Calm - N/A   Overcast
11:23 PM 33.8 °F - 33.8 °F 100% 29.72 in 5.0 mi Calm Calm - N/A   Overcast
11:26 PM 33.8 °F - 33.8 °F 100% 29.72 in 5.0 mi SW 2.3 mph - N/A   Overcast
11:50 PM 33.8 °F - 33.8 °F 100% 29.73 in 3.0 mi SSW 2.3 mph - N/A   Overcast